createdAt,value
2018-09-19T00:02:10.432Z,19.40
2018-09-19T00:04:38.859Z,19.50
2018-09-19T00:07:07.294Z,19.40
2018-09-19T00:09:35.661Z,19.50
2018-09-19T00:12:04.175Z,19.40
2018-09-19T00:14:32.957Z,19.40
2018-09-19T00:17:01.315Z,19.30
2018-09-19T00:19:29.700Z,19.30
2018-09-19T00:21:58.210Z,19.20
2018-09-19T00:24:26.622Z,19.20
2018-09-19T00:26:55.068Z,19.10
2018-09-19T00:29:24.413Z,19.10
2018-09-19T00:31:53.181Z,19.00
2018-09-19T00:34:21.626Z,19.00
2018-09-19T00:36:50.036Z,18.90
2018-09-19T00:39:18.444Z,18.80
2018-09-19T00:41:46.858Z,18.80
2018-09-19T00:44:15.267Z,18.80
2018-09-19T00:46:43.664Z,18.80
2018-09-19T00:49:12.130Z,18.70
2018-09-19T00:51:40.704Z,18.70
2018-09-19T00:54:09.135Z,18.70
2018-09-19T00:56:37.584Z,18.60
2018-09-19T00:59:06.164Z,18.50
2018-09-19T01:01:34.718Z,18.50
2018-09-19T01:04:03.095Z,18.40
2018-09-19T01:06:31.648Z,18.30
2018-09-19T01:09:00.117Z,18.20
2018-09-19T01:11:29.042Z,18.20
2018-09-19T01:13:57.422Z,18.00
2018-09-19T01:16:25.875Z,18.00
2018-09-19T01:18:54.220Z,18.00
2018-09-19T01:21:22.612Z,17.90
2018-09-19T01:23:51.128Z,17.90
2018-09-19T01:26:19.520Z,17.80
2018-09-19T01:28:47.959Z,17.80
2018-09-19T01:31:16.378Z,17.80
2018-09-19T01:33:44.897Z,17.70
2018-09-19T01:36:13.287Z,17.70
2018-09-19T01:38:41.862Z,17.70
2018-09-19T01:41:10.356Z,17.60
2018-09-19T01:43:38.769Z,17.60
2018-09-19T01:46:07.810Z,17.50
2018-09-19T01:48:36.243Z,17.50
2018-09-19T01:51:04.681Z,17.50
2018-09-19T01:53:33.216Z,17.40
2018-09-19T01:56:01.616Z,17.40
2018-09-19T01:58:30.014Z,17.40
2018-09-19T02:00:58.401Z,17.50
2018-09-19T02:03:26.834Z,17.50
2018-09-19T02:05:55.317Z,17.40
2018-09-19T02:08:23.712Z,17.40
2018-09-19T02:10:52.262Z,17.30
2018-09-19T02:13:20.634Z,17.30
2018-09-19T02:15:49.048Z,17.30
2018-09-19T02:18:17.485Z,17.30
2018-09-19T02:20:46.083Z,17.30
2018-09-19T02:23:14.527Z,17.30
2018-09-19T02:25:42.964Z,17.30
2018-09-19T02:28:11.419Z,17.20
2018-09-19T02:30:39.820Z,17.20
2018-09-19T02:33:08.211Z,17.10
2018-09-19T02:35:36.671Z,17.10
2018-09-19T02:38:05.043Z,17.10
2018-09-19T02:40:33.429Z,17.00
2018-09-19T02:43:01.888Z,17.00
2018-09-19T02:45:30.255Z,17.00
2018-09-19T02:47:58.728Z,17.00
2018-09-19T02:50:27.116Z,16.90
2018-09-19T02:52:56.772Z,16.90
2018-09-19T02:55:26.253Z,16.90
2018-09-19T02:57:54.690Z,16.90
2018-09-19T03:00:23.267Z,16.80
2018-09-19T03:02:52.096Z,16.80
2018-09-19T03:05:20.659Z,16.80
2018-09-19T03:07:49.071Z,16.80
2018-09-19T03:10:17.454Z,16.80
2018-09-19T03:12:45.867Z,16.80
2018-09-19T03:15:14.246Z,16.70
2018-09-19T03:17:42.886Z,16.60
2018-09-19T03:20:11.112Z,16.70
2018-09-19T03:22:39.524Z,16.60
2018-09-19T03:25:07.921Z,16.60
2018-09-19T03:27:36.391Z,16.60
2018-09-19T03:30:05.321Z,16.60
2018-09-19T03:32:33.707Z,16.60
2018-09-19T03:35:02.148Z,16.60
2018-09-19T03:37:30.551Z,16.60
2018-09-19T03:39:58.965Z,16.60
2018-09-19T03:42:27.459Z,16.60
2018-09-19T03:44:55.969Z,16.60
2018-09-19T03:47:24.471Z,16.50
2018-09-19T03:49:52.983Z,16.50
2018-09-19T03:52:21.404Z,16.50
2018-09-19T03:54:49.780Z,16.50
2018-09-19T03:57:18.153Z,16.50
2018-09-19T03:59:46.565Z,16.50
2018-09-19T04:02:14.936Z,16.50
2018-09-19T04:04:43.381Z,16.60
2018-09-19T04:07:11.780Z,16.60
2018-09-19T04:09:40.201Z,16.50
2018-09-19T04:14:36.823Z,16.40
2018-09-19T04:17:05.257Z,16.40
2018-09-19T04:19:33.625Z,16.40
2018-09-19T04:22:02.032Z,16.40
2018-09-19T04:24:30.564Z,16.30
2018-09-19T04:26:58.975Z,16.30
2018-09-19T04:29:27.391Z,16.30
2018-09-19T04:31:55.801Z,16.30
2018-09-19T04:34:24.195Z,16.30
2018-09-19T04:36:52.731Z,16.30
2018-09-19T04:39:21.143Z,16.30
2018-09-19T04:41:49.621Z,16.20
2018-09-19T04:44:18.042Z,16.20
2018-09-19T04:46:46.473Z,16.20
2018-09-19T04:49:14.959Z,16.20
2018-09-19T04:51:43.508Z,16.10
2018-09-19T04:54:11.996Z,16.10
2018-09-19T04:56:40.402Z,16.10
2018-09-19T04:59:08.844Z,16.10
2018-09-19T05:01:37.337Z,16.10
2018-09-19T05:04:05.800Z,16.10
2018-09-19T05:06:34.322Z,16.10
2018-09-19T05:09:03.020Z,16.00
2018-09-19T05:11:31.485Z,16.00
2018-09-19T05:13:59.827Z,16.00
2018-09-19T05:16:28.252Z,16.00
2018-09-19T05:18:56.708Z,16.00
2018-09-19T05:21:25.141Z,16.00
2018-09-19T05:23:53.567Z,16.00
2018-09-19T05:26:22.063Z,16.10
2018-09-19T05:28:50.467Z,16.10
2018-09-19T05:31:18.881Z,16.10
2018-09-19T05:33:47.303Z,16.20
2018-09-19T05:36:15.833Z,16.30
2018-09-19T05:38:44.324Z,16.30
2018-09-19T05:41:13.089Z,16.30
2018-09-19T05:43:41.548Z,16.40
2018-09-19T05:46:10.016Z,16.40
2018-09-19T05:48:38.427Z,16.40
2018-09-19T05:51:06.854Z,16.40
2018-09-19T05:53:35.251Z,16.30
2018-09-19T05:56:03.680Z,16.30
2018-09-19T05:58:32.114Z,16.50
2018-09-19T06:01:00.523Z,16.60
2018-09-19T06:03:28.928Z,16.60
2018-09-19T06:05:57.439Z,16.60
2018-09-19T06:08:25.745Z,16.70
2018-09-19T06:10:54.136Z,16.70
2018-09-19T06:13:22.609Z,16.70
2018-09-19T06:15:51.303Z,16.70
2018-09-19T06:18:19.712Z,16.80
2018-09-19T06:20:48.096Z,16.80
2018-09-19T06:23:16.543Z,16.90
2018-09-19T06:25:45.261Z,17.00
2018-09-19T06:28:13.833Z,17.10
2018-09-19T06:30:42.324Z,17.20
2018-09-19T06:33:11.088Z,17.20
2018-09-19T06:35:39.447Z,17.30
2018-09-19T06:38:07.849Z,17.40
2018-09-19T06:40:36.399Z,17.40
2018-09-19T06:43:04.779Z,17.50
2018-09-19T06:45:33.267Z,17.60
2018-09-19T06:48:01.614Z,17.60
2018-09-19T06:50:30.090Z,17.70
2018-09-19T06:52:59.420Z,17.80
2018-09-19T06:55:28.121Z,17.80
2018-09-19T06:57:57.029Z,18.00
2018-09-19T07:00:25.699Z,18.00
2018-09-19T07:02:54.121Z,18.00
2018-09-19T07:05:22.606Z,18.10
2018-09-19T07:07:51.028Z,18.30
2018-09-19T07:10:19.425Z,18.40
2018-09-19T07:12:47.921Z,18.50
2018-09-19T07:15:16.313Z,18.50
2018-09-19T07:17:44.753Z,18.60
2018-09-19T07:20:13.176Z,18.60
2018-09-19T07:22:41.714Z,18.80
2018-09-19T07:25:10.255Z,18.80
2018-09-19T07:27:38.705Z,18.90
2018-09-19T07:30:07.280Z,19.00
2018-09-19T07:32:35.780Z,19.00
2018-09-19T07:35:04.212Z,22.30
2018-09-19T07:37:32.604Z,19.30
2018-09-19T07:40:01.087Z,19.40
2018-09-19T07:42:29.544Z,19.50
2018-09-19T07:44:57.942Z,19.60
2018-09-19T07:47:26.415Z,19.70
2018-09-19T07:49:54.837Z,19.90
2018-09-19T07:52:23.262Z,20.00
2018-09-19T07:54:51.659Z,20.20
2018-09-19T07:57:20.052Z,20.30
2018-09-19T07:59:48.498Z,20.40
2018-09-19T08:02:17.024Z,20.50
2018-09-19T08:04:45.470Z,20.60
2018-09-19T08:07:13.899Z,20.80
2018-09-19T08:09:42.330Z,20.90
2018-09-19T08:12:10.813Z,21.10
2018-09-19T08:14:41.205Z,21.30
2018-09-19T08:17:09.603Z,21.50
2018-09-19T08:19:38.152Z,21.70
2018-09-19T08:22:06.579Z,21.90
2018-09-19T08:24:34.981Z,22.10
2018-09-19T08:27:03.373Z,22.30
2018-09-19T08:29:31.793Z,22.50
2018-09-19T08:32:00.183Z,22.90
2018-09-19T08:34:28.660Z,23.10
2018-09-19T08:36:57.124Z,23.20
2018-09-19T08:39:25.560Z,23.10
2018-09-19T08:41:53.992Z,22.90
2018-09-19T08:44:22.543Z,22.70
2018-09-19T08:46:51.002Z,22.30
2018-09-19T08:49:19.491Z,22.30
2018-09-19T08:51:47.910Z,22.10
2018-09-19T08:54:16.368Z,22.20
2018-09-19T08:56:44.846Z,22.10
2018-09-19T08:59:13.269Z,22.20
2018-09-19T09:01:41.660Z,22.40
2018-09-19T09:04:10.054Z,22.60
2018-09-19T09:06:38.559Z,22.70
2018-09-19T09:09:07.956Z,22.80
2018-09-19T09:11:36.670Z,22.90
2018-09-19T09:14:05.105Z,23.00
2018-09-19T09:16:33.616Z,23.10
2018-09-19T09:19:01.992Z,23.20
2018-09-19T09:21:30.716Z,23.30
2018-09-19T09:23:59.163Z,23.40
2018-09-19T09:26:27.588Z,23.50
2018-09-19T09:28:55.991Z,23.70
2018-09-19T09:31:24.454Z,23.70
2018-09-19T09:33:52.843Z,23.80
2018-09-19T09:36:21.441Z,24.00
2018-09-19T09:38:49.897Z,24.00
2018-09-19T09:41:18.341Z,24.10
2018-09-19T09:43:46.756Z,24.10
2018-09-19T09:46:15.164Z,24.30
2018-09-19T09:48:43.668Z,24.40
2018-09-19T09:51:12.109Z,24.50
2018-09-19T09:53:40.546Z,24.60
2018-09-19T09:56:09.051Z,24.70
2018-09-19T09:58:37.475Z,24.80
2018-09-19T10:01:05.923Z,24.90
2018-09-19T10:03:34.345Z,25.10
2018-09-19T10:06:02.796Z,25.30
2018-09-19T10:08:31.228Z,25.70
2018-09-19T10:10:59.673Z,25.70
2018-09-19T10:13:28.135Z,25.90
2018-09-19T10:15:56.602Z,25.90
2018-09-19T10:18:25.178Z,26.10
2018-09-19T10:20:53.546Z,26.20
2018-09-19T10:23:22.083Z,26.20
2018-09-19T10:25:50.508Z,26.40
2018-09-19T10:28:19.090Z,26.40
2018-09-19T10:30:47.584Z,26.20
2018-09-19T10:33:16.559Z,26.00
2018-09-19T10:35:44.943Z,23.80
2018-09-19T10:38:13.320Z,26.10
2018-09-19T10:40:41.706Z,26.30
2018-09-19T10:43:10.112Z,26.10
2018-09-19T10:45:38.509Z,26.40
2018-09-19T10:48:06.925Z,26.50
2018-09-19T10:50:35.331Z,26.60
2018-09-19T10:53:04.337Z,26.70
2018-09-19T10:55:32.753Z,26.60
2018-09-19T10:58:01.336Z,26.70
2018-09-19T11:00:29.749Z,26.90
2018-09-19T11:02:58.198Z,26.80
2018-09-19T11:05:26.629Z,26.60
2018-09-19T11:07:54.989Z,26.30
2018-09-19T11:10:23.514Z,26.20
2018-09-19T11:12:51.913Z,26.00
2018-09-19T11:15:20.358Z,25.90
2018-09-19T11:17:48.740Z,25.90
2018-09-19T11:20:17.261Z,26.10
2018-09-19T11:22:45.737Z,26.20
2018-09-19T11:25:14.200Z,26.20
2018-09-19T11:27:42.637Z,26.10
2018-09-19T11:30:11.111Z,26.30
2018-09-19T11:32:39.500Z,26.20
2018-09-19T11:35:08.038Z,26.10
2018-09-19T11:37:36.488Z,26.00
2018-09-19T11:40:04.951Z,26.10
2018-09-19T11:42:33.343Z,26.20
2018-09-19T11:45:01.781Z,26.30
2018-09-19T11:47:30.195Z,26.60
2018-09-19T11:49:58.624Z,26.80
2018-09-19T11:52:27.072Z,26.80
2018-09-19T11:54:55.459Z,27.00
2018-09-19T11:57:23.904Z,27.20
2018-09-19T11:59:52.333Z,27.30
2018-09-19T12:02:20.934Z,27.30
2018-09-19T12:04:49.360Z,27.30
2018-09-19T12:07:17.835Z,27.30
2018-09-19T12:09:46.278Z,27.30
2018-09-19T12:12:14.752Z,27.40
2018-09-19T12:14:43.177Z,27.60
2018-09-19T12:17:11.720Z,27.50
2018-09-19T12:19:40.141Z,27.80
2018-09-19T12:22:08.546Z,27.80
2018-09-19T12:24:36.955Z,27.60
2018-09-19T12:27:05.391Z,27.50
2018-09-19T12:29:33.844Z,27.60
2018-09-19T12:32:02.512Z,27.70
2018-09-19T12:34:31.098Z,27.70
2018-09-19T12:36:59.529Z,27.60
2018-09-19T12:39:28.010Z,27.90
2018-09-19T12:41:56.412Z,28.00
2018-09-19T12:44:24.820Z,28.00
2018-09-19T12:46:53.248Z,28.00
2018-09-19T12:49:21.661Z,28.00
2018-09-19T12:51:50.432Z,27.50
2018-09-19T12:54:18.917Z,27.30
2018-09-19T12:56:47.368Z,27.50
2018-09-19T12:59:15.811Z,27.50
2018-09-19T13:01:44.212Z,27.60
2018-09-19T13:04:12.629Z,27.50
2018-09-19T13:06:41.052Z,27.50
2018-09-19T13:09:12.244Z,27.60
2018-09-19T13:11:41.301Z,27.60
2018-09-19T13:14:09.736Z,27.60
2018-09-19T13:16:38.149Z,27.70
2018-09-19T13:19:06.761Z,27.60
2018-09-19T13:21:35.201Z,27.60
2018-09-19T13:24:03.645Z,27.70
2018-09-19T13:26:32.105Z,27.80
2018-09-19T13:29:00.536Z,27.70
2018-09-19T13:31:28.983Z,27.80
2018-09-19T13:33:57.395Z,28.00
2018-09-19T13:36:25.820Z,28.10
2018-09-19T13:38:54.229Z,27.90
2018-09-19T13:41:22.613Z,27.80
2018-09-19T13:43:51.048Z,27.70
2018-09-19T13:46:19.567Z,27.50
2018-09-19T13:48:51.897Z,27.50
2018-09-19T13:51:22.861Z,27.50
2018-09-19T13:53:51.440Z,27.40
2018-09-19T13:56:20.353Z,27.40
2018-09-19T13:58:48.870Z,27.40
2018-09-19T14:01:17.620Z,27.40
2018-09-19T14:03:46.112Z,27.40
2018-09-19T14:06:14.540Z,27.60
2018-09-19T14:08:42.981Z,27.60
2018-09-19T14:11:11.525Z,27.70
2018-09-19T14:13:39.957Z,27.70
2018-09-19T14:16:08.926Z,27.70
2018-09-19T14:18:37.452Z,27.70
2018-09-19T14:21:05.875Z,27.60
2018-09-19T14:23:34.327Z,27.70
2018-09-19T14:26:03.167Z,27.60
2018-09-19T14:28:32.041Z,27.50
2018-09-19T14:31:00.533Z,27.60
2018-09-19T14:33:29.060Z,27.60
2018-09-19T14:35:57.741Z,27.50
2018-09-19T14:38:26.268Z,27.60
2018-09-19T14:40:54.713Z,27.60
2018-09-19T14:43:23.190Z,27.60
2018-09-19T14:45:51.721Z,27.60
2018-09-19T14:48:20.236Z,27.60
2018-09-19T14:50:48.686Z,27.70
2018-09-19T14:53:17.075Z,27.60
2018-09-19T14:55:45.563Z,27.60
2018-09-19T14:58:14.001Z,27.60
2018-09-19T15:00:42.520Z,27.50
2018-09-19T15:03:10.931Z,27.50
2018-09-19T15:05:39.348Z,27.40
2018-09-19T15:08:08.069Z,27.30
2018-09-19T15:10:36.570Z,27.40
2018-09-19T15:13:05.100Z,27.50
2018-09-19T15:15:33.581Z,27.40
2018-09-19T15:18:02.208Z,27.30
2018-09-19T15:20:30.616Z,27.30
2018-09-19T15:22:59.073Z,27.30
2018-09-19T15:25:27.601Z,27.30
2018-09-19T15:27:56.052Z,27.30
2018-09-19T15:30:24.561Z,27.40
2018-09-19T15:32:53.134Z,27.20
2018-09-19T15:35:21.581Z,27.20
2018-09-19T15:37:50.057Z,27.20
2018-09-19T15:40:18.465Z,27.30
2018-09-19T15:42:46.932Z,27.20
2018-09-19T15:45:15.344Z,27.20
2018-09-19T15:47:43.766Z,27.10
2018-09-19T15:50:12.241Z,27.10
2018-09-19T15:52:40.691Z,27.10
2018-09-19T15:55:09.380Z,27.00
2018-09-19T15:57:38.012Z,27.00
2018-09-19T16:00:06.484Z,27.00
2018-09-19T16:02:34.924Z,26.90
2018-09-19T16:05:03.397Z,27.00
2018-09-19T16:07:32.313Z,26.90
2018-09-19T16:10:00.724Z,27.00
2018-09-19T16:12:29.249Z,26.90
2018-09-19T16:14:57.740Z,26.70
2018-09-19T16:17:26.151Z,26.70
2018-09-19T16:19:54.584Z,26.60
2018-09-19T16:22:23.095Z,26.60
2018-09-19T16:24:51.540Z,26.50
2018-09-19T16:27:19.991Z,26.50
2018-09-19T16:29:48.434Z,26.50
2018-09-19T16:32:16.809Z,26.40
2018-09-19T16:34:45.229Z,26.40
2018-09-19T16:37:13.623Z,26.40
2018-09-19T16:39:42.096Z,26.30
2018-09-19T16:42:10.600Z,26.30
2018-09-19T16:44:39.113Z,26.20
2018-09-19T16:47:07.537Z,26.20
2018-09-19T16:49:36.005Z,26.10
2018-09-19T16:52:04.469Z,26.10
2018-09-19T16:54:32.932Z,25.90
2018-09-19T16:57:01.632Z,25.90
2018-09-19T16:59:30.044Z,25.70
2018-09-19T17:01:58.508Z,25.70
2018-09-19T17:04:26.972Z,25.70
2018-09-19T17:06:55.408Z,25.60
2018-09-19T17:09:23.860Z,25.50
2018-09-19T17:11:52.295Z,25.50
2018-09-19T17:14:21.025Z,25.50
2018-09-19T17:16:49.445Z,25.50
2018-09-19T17:19:17.900Z,25.50
2018-09-19T17:21:46.316Z,25.50
2018-09-19T17:24:14.769Z,25.40
2018-09-19T17:26:43.204Z,25.30
2018-09-19T17:29:11.768Z,25.30
2018-09-19T17:31:40.195Z,25.20
2018-09-19T17:34:08.950Z,25.10
2018-09-19T17:36:37.433Z,25.00
2018-09-19T17:39:08.949Z,24.80
2018-09-19T17:41:37.440Z,24.80
2018-09-19T17:44:05.928Z,24.80
2018-09-19T17:46:34.457Z,24.70
2018-09-19T17:49:02.940Z,24.60
2018-09-19T17:51:31.404Z,24.60
2018-09-19T17:53:59.957Z,24.50
2018-09-19T17:56:28.434Z,24.40
2018-09-19T17:58:56.911Z,24.30
2018-09-19T18:01:25.409Z,24.30
2018-09-19T18:03:53.861Z,24.20
2018-09-19T18:06:22.365Z,24.20
2018-09-19T18:08:50.818Z,24.20
2018-09-19T18:11:19.298Z,24.10
2018-09-19T18:13:47.802Z,24.00
2018-09-19T18:16:16.509Z,23.90
2018-09-19T18:18:45.054Z,23.70
2018-09-19T18:21:13.448Z,23.70
2018-09-19T18:23:41.868Z,23.60
2018-09-19T18:26:10.546Z,23.60
2018-09-19T18:28:38.959Z,23.60
2018-09-19T18:31:07.429Z,23.70
2018-09-19T18:33:35.860Z,23.70
2018-09-19T18:36:04.349Z,23.60
2018-09-19T18:38:32.827Z,23.60
2018-09-19T18:41:01.216Z,23.60
2018-09-19T18:43:29.666Z,23.60
2018-09-19T18:45:58.144Z,23.70
2018-09-19T18:48:26.581Z,23.70
2018-09-19T18:50:55.016Z,23.60
2018-09-19T18:53:23.447Z,23.50
2018-09-19T18:55:52.466Z,23.60
2018-09-19T18:58:21.701Z,23.50
2018-09-19T19:00:50.271Z,23.70
2018-09-19T19:03:18.761Z,23.60
2018-09-19T19:05:47.435Z,23.60
2018-09-19T19:08:16.189Z,23.40
2018-09-19T19:10:44.653Z,23.30
2018-09-19T19:13:13.184Z,23.20
2018-09-19T19:15:41.697Z,23.10
2018-09-19T19:18:10.572Z,23.10
2018-09-19T19:23:07.163Z,23.00
2018-09-19T19:25:35.723Z,23.00
2018-09-19T19:28:04.128Z,22.90
2018-09-19T19:30:32.989Z,22.70
2018-09-19T19:33:01.413Z,22.70
2018-09-19T19:35:29.800Z,22.60
2018-09-19T19:37:58.451Z,22.60
2018-09-19T19:40:26.933Z,22.50
2018-09-19T19:42:55.387Z,22.50
2018-09-19T19:45:24.041Z,22.40
2018-09-19T19:47:52.805Z,22.20
2018-09-19T19:50:21.774Z,22.20
2018-09-19T19:52:50.324Z,22.10
2018-09-19T19:55:18.845Z,22.10
2018-09-19T19:57:47.294Z,22.00
2018-09-19T20:00:17.048Z,21.90
2018-09-19T20:02:45.543Z,21.90
2018-09-19T20:05:13.996Z,21.90
2018-09-19T20:07:42.605Z,21.90
2018-09-19T20:10:11.158Z,22.00
2018-09-19T20:12:39.716Z,22.00
2018-09-19T20:15:09.056Z,22.00
2018-09-19T20:17:37.445Z,21.90
2018-09-19T20:20:06.071Z,21.80
2018-09-19T20:22:34.476Z,21.80
2018-09-19T20:25:02.949Z,21.80
2018-09-19T20:27:31.489Z,21.80
2018-09-19T20:30:00.340Z,21.80
2018-09-19T20:32:29.068Z,21.70
2018-09-19T20:34:57.489Z,21.60
2018-09-19T20:37:25.895Z,21.60
2018-09-19T20:39:54.391Z,21.40
2018-09-19T20:42:22.882Z,21.40
2018-09-19T20:44:51.308Z,21.30
2018-09-19T20:47:19.683Z,21.20
2018-09-19T20:49:48.857Z,21.20
2018-09-19T20:52:17.270Z,21.10
2018-09-19T20:54:45.648Z,21.00
2018-09-19T20:57:14.044Z,21.00
2018-09-19T20:59:42.459Z,21.00
2018-09-19T21:02:10.920Z,20.90
2018-09-19T21:04:39.576Z,20.90
2018-09-19T21:07:08.013Z,20.80
2018-09-19T21:09:36.412Z,20.80
2018-09-19T21:12:04.935Z,20.70
2018-09-19T21:14:33.296Z,20.80
2018-09-19T21:17:01.707Z,20.80
2018-09-19T21:19:30.130Z,20.80
2018-09-19T21:21:58.645Z,20.80
2018-09-19T21:24:27.024Z,20.80
2018-09-19T21:26:55.456Z,20.80
2018-09-19T21:29:23.895Z,20.70
2018-09-19T21:31:52.339Z,20.70
2018-09-19T21:34:20.919Z,20.60
2018-09-19T21:36:49.389Z,20.60
2018-09-19T21:39:17.836Z,20.50
2018-09-19T21:41:46.338Z,20.40
2018-09-19T21:44:14.789Z,20.40
2018-09-19T21:46:43.343Z,20.40
2018-09-19T21:49:11.759Z,20.30
2018-09-19T21:51:40.165Z,20.30
2018-09-19T21:54:08.629Z,20.20
2018-09-19T21:56:37.106Z,20.20
2018-09-19T21:59:05.779Z,20.00
2018-09-19T22:01:39.705Z,20.00
2018-09-19T22:04:08.100Z,20.00
2018-09-19T22:06:36.672Z,20.00
2018-09-19T22:09:07.837Z,20.10
2018-09-19T22:11:36.703Z,20.00
2018-09-19T22:14:05.156Z,19.80
2018-09-19T22:16:33.593Z,19.80
2018-09-19T22:19:01.996Z,19.70
2018-09-19T22:21:30.394Z,19.60
2018-09-19T22:23:59.457Z,19.60
2018-09-19T22:26:27.848Z,19.50
2018-09-19T22:28:56.274Z,19.50
2018-09-19T22:31:24.693Z,19.40
2018-09-19T22:33:53.187Z,19.30
2018-09-19T22:36:22.570Z,19.20
2018-09-19T22:38:51.021Z,19.10
2018-09-19T22:41:20.308Z,19.00
2018-09-19T22:43:48.867Z,19.00
2018-09-19T22:46:17.280Z,18.90
2018-09-19T22:48:46.105Z,18.90
2018-09-19T22:51:14.665Z,18.80
2018-09-19T22:53:43.395Z,18.80
2018-09-19T22:56:11.817Z,18.70
2018-09-19T22:58:40.319Z,18.70
2018-09-19T23:01:08.749Z,18.60
2018-09-19T23:03:37.185Z,18.60
2018-09-19T23:06:05.575Z,18.60
2018-09-19T23:08:33.950Z,18.50
2018-09-19T23:11:02.441Z,18.50
2018-09-19T23:13:31.116Z,18.50
2018-09-19T23:15:59.590Z,18.40
2018-09-19T23:18:28.041Z,18.40
2018-09-19T23:20:56.434Z,18.40
2018-09-19T23:23:24.862Z,18.40
2018-09-19T23:25:53.322Z,18.40
2018-09-19T23:28:21.695Z,18.30
2018-09-19T23:30:50.393Z,18.30
2018-09-19T23:33:18.837Z,18.30
2018-09-19T23:35:47.219Z,18.20
2018-09-19T23:38:15.637Z,18.20
2018-09-19T23:40:44.092Z,18.20
2018-09-19T23:43:12.492Z,18.10
2018-09-19T23:45:40.898Z,18.10
2018-09-19T23:48:09.356Z,18.00
2018-09-19T23:50:37.773Z,18.00
2018-09-19T23:53:06.340Z,18.00
2018-09-19T23:55:34.920Z,18.00
2018-09-19T23:58:03.375Z,18.00
